METAR Data
IDs: Format: Raw Decoded Include TAF

Data at: 1735 UTC 03 Jul 2020

METAR for:KFWA (Fort Wayne Intl, IN, US)
Text:KFWA 031654Z 33008KT 10SM SCT065 BKN300 33/17 A3006 RMK AO2 SLP170 SCT V BKN T03280172
Temperature: 32.8°C ( 91°F)
Dewpoint: 17.2°C ( 63°F) [RH = 39%]
Pressure (altimeter):30.06 inches Hg (1018.0 mb) [Sea level pressure: 1017.0 mb]
Winds:from the NNW (330 degrees) at 9 MPH (8 knots; 4.1 m/s)
Visibility:10 or more sm (16+ km)
Ceiling:30000 feet AGL
Clouds: scattered clouds at 6500 feet AGL, broken clouds at 30000 feet AGL